sensor_id;sensor_type;location;lat;lon;timestamp;pressure;altitude;pressure_sealevel;temperature;humidity
60101;BME280;45978;53.646;55.930;2022-12-18T00:00:17;100972.59;;;-1.73;85.90
60101;BME280;45978;53.646;55.930;2022-12-18T00:01:25;100973.94;;;-1.60;85.92
60101;BME280;45978;53.646;55.930;2022-12-18T00:02:26;100965.81;;;-1.71;85.24
60101;BME280;45978;53.646;55.930;2022-12-18T00:03:28;100960.66;;;-1.71;84.99
60101;BME280;45978;53.646;55.930;2022-12-18T00:04:29;100967.84;;;-1.62;85.01
60101;BME280;45978;53.646;55.930;2022-12-18T00:05:31;100962.84;;;-1.59;85.02
60101;BME280;45978;53.646;55.930;2022-12-18T00:06:33;100949.72;;;-1.65;84.77
60101;BME280;45978;53.646;55.930;2022-12-18T00:07:35;100964.66;;;-1.56;84.90
60101;BME280;45978;53.646;55.930;2022-12-18T00:08:37;100947.09;;;-1.67;84.48
60101;BME280;45978;53.646;55.930;2022-12-18T00:09:39;100952.09;;;-1.70;84.01
60101;BME280;45978;53.646;55.930;2022-12-18T00:10:40;100977.28;;;-1.63;84.02
60101;BME280;45978;53.646;55.930;2022-12-18T00:11:42;100971.50;;;-1.57;83.73
60101;BME280;45978;53.646;55.930;2022-12-18T00:12:43;100969.78;;;-1.56;83.69
60101;BME280;45978;53.646;55.930;2022-12-18T00:13:45;100981.84;;;-1.55;83.58
60101;BME280;45978;53.646;55.930;2022-12-18T00:14:46;100980.28;;;-1.52;82.72
60101;BME280;45978;53.646;55.930;2022-12-18T00:15:48;100975.09;;;-1.53;82.90
60101;BME280;45978;53.646;55.930;2022-12-18T00:16:49;100969.78;;;-1.56;82.34
60101;BME280;45978;53.646;55.930;2022-12-18T00:17:51;100963.53;;;-1.63;81.78
60101;BME280;45978;53.646;55.930;2022-12-18T00:18:54;100963.81;;;-1.55;82.57
60101;BME280;45978;53.646;55.930;2022-12-18T00:19:56;100968.28;;;-1.51;81.88
60101;BME280;45978;53.646;55.930;2022-12-18T00:21:05;100992.34;;;-1.51;81.47
60101;BME280;45978;53.646;55.930;2022-12-18T00:22:06;100968.28;;;-1.51;81.24
60101;BME280;45978;53.646;55.930;2022-12-18T00:23:08;100958.09;;;-1.48;81.50
60101;BME280;45978;53.646;55.930;2022-12-18T00:24:10;100967.75;;;-1.43;81.15
60101;BME280;45978;53.646;55.930;2022-12-18T00:25:12;100953.81;;;-1.48;80.91
60101;BME280;45978;53.646;55.930;2022-12-18T00:26:19;100960.81;;;-1.44;80.64
60101;BME280;45978;53.646;55.930;2022-12-18T00:27:21;100942.69;;;-1.47;80.64
60101;BME280;45978;53.646;55.930;2022-12-18T00:28:22;100944.22;;;-1.52;79.98
60101;BME280;45978;53.646;55.930;2022-12-18T00:29:24;100951.28;;;-1.46;79.98
60101;BME280;45978;53.646;55.930;2022-12-18T00:30:25;100962.53;;;-1.44;80.19
60101;BME280;45978;53.646;55.930;2022-12-18T00:31:26;100965.13;;;-1.44;79.74
60101;BME280;45978;53.646;55.930;2022-12-18T00:32:28;100969.63;;;-1.38;79.69
60101;BME280;45978;53.646;55.930;2022-12-18T00:33:29;100948.78;;;-1.45;79.25
60101;BME280;45978;53.646;55.930;2022-12-18T00:34:31;100934.84;;;-1.50;78.80
60101;BME280;45978;53.646;55.930;2022-12-18T00:35:32;100959.44;;;-1.35;78.78
60101;BME280;45978;53.646;55.930;2022-12-18T00:36:34;100958.38;;;-1.41;78.11
60101;BME280;45978;53.646;55.930;2022-12-18T00:37:36;100961.19;;;-1.34;77.93
60101;BME280;45978;53.646;55.930;2022-12-18T00:38:38;100967.91;;;-1.38;77.69
60101;BME280;45978;53.646;55.930;2022-12-18T00:39:39;100949.94;;;-1.36;77.22
60101;BME280;45978;53.646;55.930;2022-12-18T00:40:44;100956.75;;;-1.38;77.63
60101;BME280;45978;53.646;55.930;2022-12-18T00:41:47;100927.19;;;-1.48;77.08
60101;BME280;45978;53.646;55.930;2022-12-18T00:43:07;100953.66;;;-1.30;76.83
60101;BME280;45978;53.646;55.930;2022-12-18T00:44:14;100941.28;;;-1.38;77.19
60101;BME280;45978;53.646;55.930;2022-12-18T00:45:16;100940.22;;;-1.44;77.34
60101;BME280;45978;53.646;55.930;2022-12-18T00:46:18;100943.16;;;-1.34;77.26
60101;BME280;45978;53.646;55.930;2022-12-18T00:47:19;100930.19;;;-1.37;77.07
60101;BME280;45978;53.646;55.930;2022-12-18T00:48:20;100933.63;;;-1.37;76.77
60101;BME280;45978;53.646;55.930;2022-12-18T00:49:22;100947.59;;;-1.30;76.70
60101;BME280;45978;53.646;55.930;2022-12-18T00:50:25;100922.38;;;-1.39;76.51
60101;BME280;45978;53.646;55.930;2022-12-18T00:51:29;100945.44;;;-1.42;76.48
60101;BME280;45978;53.646;55.930;2022-12-18T00:52:30;100931.81;;;-1.40;75.63
60101;BME280;45978;53.646;55.930;2022-12-18T00:53:32;100934.41;;;-1.40;76.13
60101;BME280;45978;53.646;55.930;2022-12-18T00:54:33;100951.09;;;-1.28;75.96
60101;BME280;45978;53.646;55.930;2022-12-18T00:55:34;100929.13;;;-1.43;75.33
60101;BME280;45978;53.646;55.930;2022-12-18T00:56:37;100950.06;;;-1.33;75.26
60101;BME280;45978;53.646;55.930;2022-12-18T00:57:39;100947.31;;;-1.38;75.24
60101;BME280;45978;53.646;55.930;2022-12-18T00:58:41;100953.53;;;-1.33;74.97
60101;BME280;45978;53.646;55.930;2022-12-18T00:59:42;100919.44;;;-1.48;75.04
60101;BME280;45978;53.646;55.930;2022-12-18T01:00:45;100924.50;;;-1.51;74.30
60101;BME280;45978;53.646;55.930;2022-12-18T01:01:47;100955.41;;;-1.29;74.63
60101;BME280;45978;53.646;55.930;2022-12-18T01:02:49;100915.38;;;-1.43;74.32
60101;BME280;45978;53.646;55.930;2022-12-18T01:03:50;100944.09;;;-1.32;74.72
60101;BME280;45978;53.646;55.930;2022-12-18T01:04:51;100941.56;;;-1.31;74.14
60101;BME280;45978;53.646;55.930;2022-12-18T01:05:54;100956.91;;;-1.34;73.58
60101;BME280;45978;53.646;55.930;2022-12-18T01:06:57;100956.09;;;-1.33;73.99
60101;BME280;45978;53.646;55.930;2022-12-18T01:07:59;100944.16;;;-1.31;74.21
60101;BME280;45978;53.646;55.930;2022-12-18T01:09:01;100958.97;;;-1.25;74.42
60101;BME280;45978;53.646;55.930;2022-12-18T01:10:04;100959.84;;;-1.25;74.12
60101;BME280;45978;53.646;55.930;2022-12-18T01:11:10;100963.34;;;-1.23;73.81
60101;BME280;45978;53.646;55.930;2022-12-18T01:12:12;100945.63;;;-1.37;73.86
60101;BME280;45978;53.646;55.930;2022-12-18T01:13:14;100951.09;;;-1.28;73.77
60101;BME280;45978;53.646;55.930;2022-12-18T01:14:15;100944.28;;;-1.28;73.57
60101;BME280;45978;53.646;55.930;2022-12-18T01:15:17;100950.41;;;-1.24;73.83
60101;BME280;45978;53.646;55.930;2022-12-18T01:16:19;100953.03;;;-1.23;73.70
60101;BME280;45978;53.646;55.930;2022-12-18T01:17:21;100938.06;;;-1.33;72.94
60101;BME280;45978;53.646;55.930;2022-12-18T01:18:23;100908.22;;;-1.50;73.61
60101;BME280;45978;53.646;55.930;2022-12-18T01:19:25;100920.75;;;-1.37;73.26
60101;BME280;45978;53.646;55.930;2022-12-18T01:20:26;100931.13;;;-1.35;73.09
60101;BME280;45978;53.646;55.930;2022-12-18T01:21:27;100946.09;;;-1.25;73.03
60101;BME280;45978;53.646;55.930;2022-12-18T01:22:29;100950.47;;;-1.23;72.98
60101;BME280;45978;53.646;55.930;2022-12-18T01:23:30;100920.81;;;-1.35;72.92
60101;BME280;45978;53.646;55.930;2022-12-18T01:24:32;100925.91;;;-1.37;72.58
60101;BME280;45978;53.646;55.930;2022-12-18T01:25:35;100944.38;;;-1.25;72.60
60101;BME280;45978;53.646;55.930;2022-12-18T01:26:37;100949.38;;;-1.29;72.05
60101;BME280;45978;53.646;55.930;2022-12-18T01:27:39;100933.03;;;-1.30;72.19
60101;BME280;45978;53.646;55.930;2022-12-18T01:28:41;100914.66;;;-1.39;71.92
60101;BME280;45978;53.646;55.930;2022-12-18T01:29:44;100921.66;;;-1.35;72.27
60101;BME280;45978;53.646;55.930;2022-12-18T01:30:45;100923.66;;;-1.28;71.99
60101;BME280;45978;53.646;55.930;2022-12-18T01:31:47;100936.88;;;-1.18;72.53
60101;BME280;45978;53.646;55.930;2022-12-18T01:32:48;100913.94;;;-1.35;71.88
60101;BME280;45978;53.646;55.930;2022-12-18T01:33:52;100926.63;;;-1.17;72.24
60101;BME280;45978;53.646;55.930;2022-12-18T01:34:53;100920.31;;;-1.25;71.92
60101;BME280;45978;53.646;55.930;2022-12-18T01:35:55;100932.63;;;-1.18;71.67
60101;BME280;45978;53.646;55.930;2022-12-18T01:36:56;100924.81;;;-1.20;72.26
60101;BME280;45978;53.646;55.930;2022-12-18T01:37:57;100917.47;;;-1.33;71.76
60101;BME280;45978;53.646;55.930;2022-12-18T01:39:01;100913.31;;;-1.29;72.06
60101;BME280;45978;53.646;55.930;2022-12-18T01:40:03;100931.50;;;-1.25;71.42
60101;BME280;45978;53.646;55.930;2022-12-18T01:41:04;100922.06;;;-1.24;71.99
60101;BME280;45978;53.646;55.930;2022-12-18T01:42:13;100932.63;;;-1.18;71.45
60101;BME280;45978;53.646;55.930;2022-12-18T01:43:15;100939.28;;;-1.23;70.89
60101;BME280;45978;53.646;55.930;2022-12-18T01:45:59;100937.59;;;-1.23;70.07
60101;BME280;45978;53.646;55.930;2022-12-18T01:47:00;100930.72;;;-1.22;70.70
60101;BME280;45978;53.646;55.930;2022-12-18T01:48:06;100937.00;;;-1.15;70.51
60101;BME280;45978;53.646;55.930;2022-12-18T01:49:09;100913.38;;;-1.28;70.51
60101;BME280;45978;53.646;55.930;2022-12-18T01:51:29;100931.56;;;-1.23;70.05
60101;BME280;45978;53.646;55.930;2022-12-18T01:52:32;100933.25;;;-1.24;69.84
60101;BME280;45978;53.646;55.930;2022-12-18T01:53:36;100933.19;;;-1.25;69.36
60101;BME280;45978;53.646;55.930;2022-12-18T01:54:38;100917.59;;;-1.30;69.70
60101;BME280;45978;53.646;55.930;2022-12-18T01:55:43;100942.31;;;-1.11;69.44
60101;BME280;45978;53.646;55.930;2022-12-18T01:56:49;100932.44;;;-1.23;69.45
60101;BME280;45978;53.646;55.930;2022-12-18T01:57:54;100931.63;;;-1.22;69.27
60101;BME280;45978;53.646;55.930;2022-12-18T01:59:02;100950.59;;;-1.20;68.77
60101;BME280;45978;53.646;55.930;2022-12-18T02:00:10;100946.16;;;-1.24;68.78
60101;BME280;45978;53.646;55.930;2022-12-18T02:01:15;100929.97;;;-1.20;69.14
60101;BME280;45978;53.646;55.930;2022-12-18T02:02:17;100936.56;;;-1.28;68.58
60101;BME280;45978;53.646;55.930;2022-12-18T02:03:18;100930.56;;;-1.27;68.64
60101;BME280;45978;53.646;55.930;2022-12-18T02:04:22;100960.84;;;-1.21;68.01
60101;BME280;45978;53.646;55.930;2022-12-18T02:05:42;100956.69;;;-1.17;67.99
60101;BME280;45978;53.646;55.930;2022-12-18T02:06:55;100928.75;;;-1.29;68.15
60101;BME280;45978;53.646;55.930;2022-12-18T02:09:24;100953.25;;;-1.16;67.52
60101;BME280;45978;53.646;55.930;2022-12-18T02:13:03;100949.94;;;-1.14;67.47
60101;BME280;45978;53.646;55.930;2022-12-18T02:15:22;100967.09;;;-1.14;67.25
60101;BME280;45978;53.646;55.930;2022-12-18T02:16:39;100960.19;;;-1.15;67.68
60101;BME280;45978;53.646;55.930;2022-12-18T02:18:03;100961.13;;;-1.13;67.42
60101;BME280;45978;53.646;55.930;2022-12-18T02:19:20;100959.03;;;-1.24;67.08
60101;BME280;45978;53.646;55.930;2022-12-18T02:20:36;100973.13;;;-1.14;67.28
60101;BME280;45978;53.646;55.930;2022-12-18T02:27:24;100968.13;;;-1.33;67.41
60101;BME280;45978;53.646;55.930;2022-12-18T02:28:29;100937.72;;;-1.42;67.00
60101;BME280;45978;53.646;55.930;2022-12-18T02:30:41;100933.41;;;-1.43;68.09
60101;BME280;45978;53.646;55.930;2022-12-18T02:31:49;100920.88;;;-1.56;67.27
60101;BME280;45978;53.646;55.930;2022-12-18T02:32:53;100943.41;;;-1.51;67.65
60101;BME280;45978;53.646;55.930;2022-12-18T02:34:01;100914.13;;;-1.53;67.38
60101;BME280;45978;53.646;55.930;2022-12-18T02:35:12;100924.75;;;-1.44;68.09
60101;BME280;45978;53.646;55.930;2022-12-18T02:36:16;100934.19;;;-1.44;67.76
60101;BME280;45978;53.646;55.930;2022-12-18T02:37:21;100931.75;;;-1.41;67.91
60101;BME280;45978;53.646;55.930;2022-12-18T02:38:28;100931.69;;;-1.43;67.73
60101;BME280;45978;53.646;55.930;2022-12-18T02:39:33;100927.47;;;-1.41;68.11
60101;BME280;45978;53.646;55.930;2022-12-18T02:40:39;100928.03;;;-1.49;68.11
60101;BME280;45978;53.646;55.930;2022-12-18T02:41:43;100937.66;;;-1.44;68.03
60101;BME280;45978;53.646;55.930;2022-12-18T02:42:44;100913.91;;;-1.59;68.60
60101;BME280;45978;53.646;55.930;2022-12-18T02:43:58;100925.59;;;-1.45;68.06
60101;BME280;45978;53.646;55.930;2022-12-18T02:45:00;100937.47;;;-1.48;68.36
60101;BME280;45978;53.646;55.930;2022-12-18T02:46:27;100926.41;;;-1.46;68.38
60101;BME280;45978;53.646;55.930;2022-12-18T02:47:38;100915.22;;;-1.46;68.43
60101;BME280;45978;53.646;55.930;2022-12-18T02:48:41;100902.34;;;-1.46;68.49
60101;BME280;45978;53.646;55.930;2022-12-18T02:50:08;100913.94;;;-1.57;68.38
60101;BME280;45978;53.646;55.930;2022-12-18T02:51:29;100921.03;;;-1.52;68.82
60101;BME280;45978;53.646;55.930;2022-12-18T02:53:00;100904.56;;;-1.55;68.45
60101;BME280;45978;53.646;55.930;2022-12-18T02:54:12;100895.81;;;-1.61;68.27
60101;BME280;45978;53.646;55.930;2022-12-18T02:55:34;100914.44;;;-1.45;68.71
60101;BME280;45978;53.646;55.930;2022-12-18T02:56:53;100896.03;;;-1.54;68.29
60101;BME280;45978;53.646;55.930;2022-12-18T02:58:03;100911.84;;;-1.45;68.05
60101;BME280;45978;53.646;55.930;2022-12-18T02:59:15;100914.13;;;-1.53;67.99
60101;BME280;45978;53.646;55.930;2022-12-18T03:00:51;100926.94;;;-1.54;68.30
60101;BME280;45978;53.646;55.930;2022-12-18T03:01:59;100902.31;;;-1.70;68.34
60101;BME280;45978;53.646;55.930;2022-12-18T03:03:16;100917.88;;;-1.45;68.13
60101;BME280;45978;53.646;55.930;2022-12-18T03:04:30;100895.13;;;-1.56;68.13
60101;BME280;45978;53.646;55.930;2022-12-18T03:06:02;100920.50;;;-1.43;68.12
60101;BME280;45978;53.646;55.930;2022-12-18T03:07:09;100884.81;;;-1.56;68.20
60101;BME280;45978;53.646;55.930;2022-12-18T03:08:17;100901.41;;;-1.48;67.71
60101;BME280;45978;53.646;55.930;2022-12-18T03:09:42;100901.41;;;-1.48;67.90
60101;BME280;45978;53.646;55.930;2022-12-18T03:11:03;100880.75;;;-1.50;67.72
60101;BME280;45978;53.646;55.930;2022-12-18T03:12:23;100885.53;;;-1.61;68.40
60101;BME280;45978;53.646;55.930;2022-12-18T03:13:35;100884.81;;;-1.56;68.29
60101;BME280;45978;53.646;55.930;2022-12-18T03:14:40;100880.13;;;-1.67;68.04
60101;BME280;45978;53.646;55.930;2022-12-18T03:15:47;100898.47;;;-1.59;68.19
60101;BME280;45978;53.646;55.930;2022-12-18T03:16:52;100887.09;;;-1.64;67.80
60101;BME280;45978;53.646;55.930;2022-12-18T03:18:10;100880.47;;;-1.57;67.79
60101;BME280;45978;53.646;55.930;2022-12-18T03:19:19;100873.56;;;-1.58;67.70
60101;BME280;45978;53.646;55.930;2022-12-18T03:20:25;100893.63;;;-1.50;67.10
60101;BME280;45978;53.646;55.930;2022-12-18T03:21:53;100896.81;;;-1.57;67.22
60101;BME280;45978;53.646;55.930;2022-12-18T03:23:09;100901.50;;;-1.47;66.74
60101;BME280;45978;53.646;55.930;2022-12-18T03:24:13;100884.22;;;-1.49;67.08
60101;BME280;45978;53.646;55.930;2022-12-18T03:25:16;100890.25;;;-1.49;66.78
60101;BME280;45978;53.646;55.930;2022-12-18T03:26:24;100898.75;;;-1.51;67.07
60101;BME280;45978;53.646;55.930;2022-12-18T03:27:31;100879.53;;;-1.60;67.14
60101;BME280;45978;53.646;55.930;2022-12-18T03:28:46;100881.59;;;-1.51;67.18
60101;BME280;45978;53.646;55.930;2022-12-18T03:30:04;100899.00;;;-1.44;67.09
60101;BME280;45978;53.646;55.930;2022-12-18T03:31:14;100884.22;;;-1.49;66.78
60101;BME280;45978;53.646;55.930;2022-12-18T03:32:20;100891.25;;;-1.45;66.89
60101;BME280;45978;53.646;55.930;2022-12-18T03:33:45;100916.88;;;-1.48;66.62
60101;BME280;45978;53.646;55.930;2022-12-18T03:34:50;100902.41;;;-1.45;66.62
60101;BME280;45978;53.646;55.930;2022-12-18T03:35:57;100898.13;;;-1.44;66.92
60101;BME280;45978;53.646;55.930;2022-12-18T03:36:58;100898.78;;;-1.50;66.38
60101;BME280;45978;53.646;55.930;2022-12-18T03:38:03;100892.81;;;-1.49;66.81
60101;BME280;45978;53.646;55.930;2022-12-18T03:39:04;100898.34;;;-1.40;66.78
60101;BME280;45978;53.646;55.930;2022-12-18T03:40:10;100888.44;;;-1.51;66.41
60101;BME280;45978;53.646;55.930;2022-12-18T03:44:23;100905.44;;;-1.32;66.51
60101;BME280;45978;53.646;55.930;2022-12-18T03:45:36;100924.13;;;-1.38;65.80
60101;BME280;45978;53.646;55.930;2022-12-18T03:47:00;100912.31;;;-1.33;66.20
60101;BME280;45978;53.646;55.930;2022-12-18T03:48:19;100901.66;;;-1.42;66.31
60101;BME280;45978;53.646;55.930;2022-12-18T03:49:32;100941.44;;;-1.34;65.83
60101;BME280;45978;53.646;55.930;2022-12-18T03:50:47;100910.31;;;-1.40;66.45
60101;BME280;45978;53.646;55.930;2022-12-18T03:52:09;100922.47;;;-1.36;66.89
60101;BME280;45978;53.646;55.930;2022-12-18T03:54:24;100891.13;;;-1.48;66.51
60101;BME280;45978;53.646;55.930;2022-12-18T03:55:34;100922.25;;;-1.42;66.71
60101;BME280;45978;53.646;55.930;2022-12-18T03:56:45;100899.91;;;-1.43;66.69
60101;BME280;45978;53.646;55.930;2022-12-18T03:57:49;100918.09;;;-1.38;66.48
60101;BME280;45978;53.646;55.930;2022-12-18T03:58:53;100907.72;;;-1.40;66.38
60101;BME280;45978;53.646;55.930;2022-12-18T04:00:10;100896.22;;;-1.50;66.56
60101;BME280;45978;53.646;55.930;2022-12-18T04:01:20;100900.78;;;-1.43;66.63
60101;BME280;45978;53.646;55.930;2022-12-18T04:02:25;100885.91;;;-1.50;66.52
60101;BME280;45978;53.646;55.930;2022-12-18T04:03:29;100915.22;;;-1.46;66.90
60101;BME280;45978;53.646;55.930;2022-12-18T04:04:34;100908.50;;;-1.43;66.54
60101;BME280;45978;53.646;55.930;2022-12-18T04:05:38;100911.16;;;-1.41;66.49
60101;BME280;45978;53.646;55.930;2022-12-18T04:06:43;100911.63;;;-1.51;66.14
60101;BME280;45978;53.646;55.930;2022-12-18T04:07:48;100922.97;;;-1.46;66.71
60101;BME280;45978;53.646;55.930;2022-12-18T04:08:52;100918.69;;;-1.46;66.58
60101;BME280;45978;53.646;55.930;2022-12-18T04:09:58;100907.34;;;-1.51;66.81
60101;BME280;45978;53.646;55.930;2022-12-18T04:11:05;100900.41;;;-1.52;66.98
60101;BME280;45978;53.646;55.930;2022-12-18T04:12:09;100909.50;;;-1.39;66.67
60101;BME280;45978;53.646;55.930;2022-12-18T04:13:10;100910.94;;;-1.46;66.58
60101;BME280;45978;53.646;55.930;2022-12-18T04:14:12;100903.72;;;-1.56;66.65
60101;BME280;45978;53.646;55.930;2022-12-18T04:15:14;100901.56;;;-1.45;66.89
60101;BME280;45978;53.646;55.930;2022-12-18T04:16:16;100903.34;;;-1.43;67.23
60101;BME280;45978;53.646;55.930;2022-12-18T04:17:19;100884.66;;;-1.61;66.33
60101;BME280;45978;53.646;55.930;2022-12-18T04:18:22;100899.00;;;-1.44;66.42
60101;BME280;45978;53.646;55.930;2022-12-18T04:19:24;100888.78;;;-1.42;66.27
60101;BME280;45978;53.646;55.930;2022-12-18T04:20:27;100889.47;;;-1.46;66.17
60101;BME280;45978;53.646;55.930;2022-12-18T04:21:30;100902.81;;;-1.34;66.25
60101;BME280;45978;53.646;55.930;2022-12-18T04:22:31;100906.28;;;-1.33;66.67
60101;BME280;45978;53.646;55.930;2022-12-18T04:23:34;100904.34;;;-1.39;66.05
60101;BME280;45978;53.646;55.930;2022-12-18T04:24:36;100910.44;;;-1.37;66.66
60101;BME280;45978;53.646;55.930;2022-12-18T04:25:47;100900.84;;;-1.41;66.16
60101;BME280;45978;53.646;55.930;2022-12-18T04:26:54;100909.84;;;-1.30;65.83
60101;BME280;45978;53.646;55.930;2022-12-18T04:27:59;100910.66;;;-1.31;66.58
60101;BME280;45978;53.646;55.930;2022-12-18T04:29:00;100909.84;;;-1.30;66.58
60101;BME280;45978;53.646;55.930;2022-12-18T04:30:03;100888.06;;;-1.38;66.35
60101;BME280;45978;53.646;55.930;2022-12-18T04:31:05;100899.63;;;-1.27;66.82
60101;BME280;45978;53.646;55.930;2022-12-18T04:32:07;100883.19;;;-1.30;66.57
60101;BME280;45978;53.646;55.930;2022-12-18T04:33:12;100900.34;;;-1.31;66.20
60101;BME280;45978;53.646;55.930;2022-12-18T04:34:17;100879.16;;;-1.46;66.56
60101;BME280;45978;53.646;55.930;2022-12-18T04:35:24;100892.97;;;-1.44;66.49
60101;BME280;45978;53.646;55.930;2022-12-18T04:36:28;100889.69;;;-1.40;66.82
60101;BME280;45978;53.646;55.930;2022-12-18T04:37:30;100881.66;;;-1.49;66.65
60101;BME280;45978;53.646;55.930;2022-12-18T04:38:31;100895.56;;;-1.44;66.52
60101;BME280;45978;53.646;55.930;2022-12-18T04:39:39;100879.31;;;-1.43;66.26
60101;BME280;45978;53.646;55.930;2022-12-18T04:40:47;100869.72;;;-1.47;66.33
60101;BME280;45978;53.646;55.930;2022-12-18T04:41:55;100886.25;;;-1.41;66.28
60101;BME280;45978;53.646;55.930;2022-12-18T04:42:56;100895.75;;;-1.40;66.34
60101;BME280;45978;53.646;55.930;2022-12-18T04:43:58;100901.22;;;-1.30;66.33
60101;BME280;45978;53.646;55.930;2022-12-18T04:44:59;100899.28;;;-1.36;66.29
60101;BME280;45978;53.646;55.930;2022-12-18T04:46:07;100909.66;;;-1.34;66.56
60101;BME280;45978;53.646;55.930;2022-12-18T04:47:09;100899.84;;;-1.45;66.49
60101;BME280;45978;53.646;55.930;2022-12-18T04:48:10;100890.31;;;-1.47;65.96
60101;BME280;45978;53.646;55.930;2022-12-18T04:49:11;100883.16;;;-1.54;66.24
60101;BME280;45978;53.646;55.930;2022-12-18T04:50:14;100899.06;;;-1.42;66.47
60101;BME280;45978;53.646;55.930;2022-12-18T04:51:16;100905.44;;;-1.32;66.43
60101;BME280;45978;53.646;55.930;2022-12-18T04:52:17;100896.72;;;-1.36;66.52
60101;BME280;45978;53.646;55.930;2022-12-18T04:53:18;100892.63;;;-1.31;66.57
60101;BME280;45978;53.646;55.930;2022-12-18T04:54:20;100894.13;;;-1.36;66.80
60101;BME280;45978;53.646;55.930;2022-12-18T04:55:27;100890.53;;;-1.41;66.79
60101;BME280;45978;53.646;55.930;2022-12-18T04:56:30;100875.78;;;-1.45;66.56
60101;BME280;45978;53.646;55.930;2022-12-18T04:57:32;100885.44;;;-1.40;66.79
60101;BME280;45978;53.646;55.930;2022-12-18T04:58:33;100887.97;;;-1.41;66.82
60101;BME280;45978;53.646;55.930;2022-12-18T04:59:35;100900.91;;;-1.40;66.66
60101;BME280;45978;53.646;55.930;2022-12-18T05:00:36;100879.00;;;-1.51;66.78
60101;BME280;45978;53.646;55.930;2022-12-18T05:01:37;100890.59;;;-1.40;66.45
60101;BME280;45978;53.646;55.930;2022-12-18T05:02:39;100885.44;;;-1.40;66.33
60101;BME280;45978;53.646;55.930;2022-12-18T05:03:41;100889.81;;;-1.37;66.44
60101;BME280;45978;53.646;55.930;2022-12-18T05:04:44;100887.34;;;-1.34;66.83
60101;BME280;45978;53.646;55.930;2022-12-18T05:05:45;100870.84;;;-1.39;66.37
60101;BME280;45978;53.646;55.930;2022-12-18T05:06:53;100869.72;;;-1.47;66.57
60101;BME280;45978;53.646;55.930;2022-12-18T05:07:55;100891.19;;;-1.23;66.87
60101;BME280;45978;53.646;55.930;2022-12-18T05:08:57;100881.59;;;-1.27;66.61
60101;BME280;45978;53.646;55.930;2022-12-18T05:09:58;100882.59;;;-1.23;66.64
60101;BME280;45978;53.646;55.930;2022-12-18T05:11:05;100876.66;;;-1.21;66.30
60101;BME280;45978;53.646;55.930;2022-12-18T05:12:07;100872.94;;;-1.29;67.11
60101;BME280;45978;53.646;55.930;2022-12-18T05:13:09;100886.97;;;-1.21;66.26
60101;BME280;45978;53.646;55.930;2022-12-18T05:14:10;100863.91;;;-1.42;66.56
60101;BME280;45978;53.646;55.930;2022-12-18T05:15:11;100824.72;;;-1.57;66.66
60101;BME280;45978;53.646;55.930;2022-12-18T05:16:14;100758.84;;;-1.98;66.72
60101;BME280;45978;53.646;55.930;2022-12-18T05:17:17;100840.59;;;-1.45;66.73
60101;BME280;45978;53.646;55.930;2022-12-18T05:18:19;100802.78;;;-1.70;66.63
60101;BME280;45978;53.646;55.930;2022-12-18T05:19:21;100877.31;;;-1.26;66.76
60101;BME280;45978;53.646;55.930;2022-12-18T05:20:23;100873.00;;;-1.27;66.82
60101;BME280;45978;53.646;55.930;2022-12-18T05:21:26;100889.50;;;-1.22;66.46
60101;BME280;45978;53.646;55.930;2022-12-18T05:22:28;100862.50;;;-1.32;66.60
60101;BME280;45978;53.646;55.930;2022-12-18T05:23:30;100886.31;;;-1.15;66.55
60101;BME280;45978;53.646;55.930;2022-12-18T05:24:32;100876.78;;;-1.17;66.13
60101;BME280;45978;53.646;55.930;2022-12-18T05:25:33;100868.19;;;-1.18;65.77
60101;BME280;45978;53.646;55.930;2022-12-18T05:26:34;100863.84;;;-1.19;65.79
60101;BME280;45978;53.646;55.930;2022-12-18T05:27:37;100881.94;;;-1.17;66.21
60101;BME280;45978;53.646;55.930;2022-12-18T05:28:38;100862.84;;;-1.23;65.48
60101;BME280;45978;53.646;55.930;2022-12-18T05:29:40;100859.34;;;-1.25;66.28
60101;BME280;45978;53.646;55.930;2022-12-18T05:30:41;100887.91;;;-1.18;66.17
60101;BME280;45978;53.646;55.930;2022-12-18T05:31:43;100883.75;;;-1.15;66.07
60101;BME280;45978;53.646;55.930;2022-12-18T05:32:44;100877.50;;;-1.22;66.05
60101;BME280;45978;53.646;55.930;2022-12-18T05:33:49;100877.38;;;-1.25;66.18
60101;BME280;45978;53.646;55.930;2022-12-18T05:34:50;100871.31;;;-1.27;65.97
60101;BME280;45978;53.646;55.930;2022-12-18T05:35:53;100837.31;;;-1.41;65.46
60101;BME280;45978;53.646;55.930;2022-12-18T05:36:55;100859.00;;;-1.34;66.12
60101;BME280;45978;53.646;55.930;2022-12-18T05:37:56;100861.00;;;-1.27;65.75
60101;BME280;45978;53.646;55.930;2022-12-18T05:38:57;100863.69;;;-1.24;66.02
60101;BME280;45978;53.646;55.930;2022-12-18T05:40:00;100866.91;;;-1.29;66.16
60101;BME280;45978;53.646;55.930;2022-12-18T05:41:01;100840.00;;;-1.37;66.05
60101;BME280;45978;53.646;55.930;2022-12-18T05:42:03;100869.66;;;-1.25;65.79
60101;BME280;45978;53.646;55.930;2022-12-18T05:43:04;100835.22;;;-1.51;65.63
60101;BME280;45978;53.646;55.930;2022-12-18T05:44:05;100899.19;;;-1.39;65.51
60101;BME280;45978;53.646;55.930;2022-12-18T05:45:10;100855.47;;;-1.37;66.03
60101;BME280;45978;53.646;55.930;2022-12-18T05:46:14;100863.56;;;-1.27;65.95
60101;BME280;45978;53.646;55.930;2022-12-18T05:47:16;100845.81;;;-1.43;65.61
60101;BME280;45978;53.646;55.930;2022-12-18T05:48:18;100857.53;;;-1.27;66.14
60101;BME280;45978;53.646;55.930;2022-12-18T05:49:21;100858.34;;;-1.28;65.77
60101;BME280;45978;53.646;55.930;2022-12-18T05:50:27;100848.09;;;-1.27;66.01
60101;BME280;45978;53.646;55.930;2022-12-18T05:51:35;100856.84;;;-1.23;66.11
60101;BME280;45978;53.646;55.930;2022-12-18T05:52:37;100861.13;;;-1.24;65.58
60101;BME280;45978;53.646;55.930;2022-12-18T05:53:40;100859.34;;;-1.25;65.53
60101;BME280;45978;53.646;55.930;2022-12-18T05:54:42;100845.75;;;-1.21;65.16
60101;BME280;45978;53.646;55.930;2022-12-18T05:55:46;100863.78;;;-1.21;65.59